Altheimer, Arkansas
Current Conditions -  °F | °C
As of 5:53 PM on Friday 21 Nov 2014 (Local Time) from KPBF Reporting Station
Haze Haze  
Wind Chill: 12°   Ceiling: 7000
Heat Index: 12°   Visibility: 5mi
Dew Point: 11°   Wind: 5mph
Humidity: 93%   Direction: 340°NNW
Pressure: 30.25"   Gusts: NA
Location:  34.32°N, 91.85°W
Report Text: KPBF 212353Z AUTO 34004KT 5SM BR OVC070 12/11 A3025 RMK AO2 RAB38E50 SLP244 P0000 60000 T01170106 10128 20117 53007
Loading
Personal Weather Stations






























Interactive Weather Map New forecast layout! Learn more

10-Day Weather Forecast

Advertisements
Track Severe Weather on mobile